Time;durP1;ratioP1;P1;durP2;ratioP2;P2;SDS_P1;SDS_P2;PMS_P1;PMS_P2;Temp;Humidity;BMP_temperature;BMP_pressure;BME280_temperature;BME280_humidity;BME280_pressure;Samples;Min_cycle;Max_cycle;Signal;HPM_P1;HPM_P2
2021/11/14 00:02:09;;;;;;;10.88;8.55;;;9.90;98.60;;;;;;5031119;28;20091;-83
2021/11/14 00:04:34;;;;;;;9.13;7.38;;;9.90;98.50;;;;;;5033106;28;20457;-82
2021/11/14 00:07:01;;;;;;;12.38;9.38;;;9.90;98.50;;;;;;5032550;28;20631;-83
2021/11/14 00:09:28;;;;;;;11.23;8.90;;;9.90;98.50;;;;;;5030705;28;20033;-82
2021/11/14 00:11:54;;;;;;;10.15;7.40;;;9.90;98.40;;;;;;5032544;28;20072;-83
2021/11/14 00:14:20;;;;;;;10.77;7.82;;;9.90;98.40;;;;;;5032647;28;20040;-83
2021/11/14 00:16:46;;;;;;;10.77;7.05;;;9.90;98.40;;;;;;5031420;28;20042;-81
2021/11/14 00:19:12;;;;;;;9.35;7.40;;;9.80;98.40;;;;;;5030321;28;20072;-82
2021/11/14 00:21:41;;;;;;;9.88;7.22;;;9.90;98.40;;;;;;5032488;28;20477;-82
2021/11/14 00:24:07;;;;;;;10.20;7.72;;;9.90;98.40;;;;;;5030512;28;20045;-81
2021/11/14 00:26:33;;;;;;;9.77;7.45;;;9.90;98.40;;;;;;5032191;28;20033;-81
2021/11/14 00:28:58;;;;;;;10.15;7.97;;;9.90;98.40;;;;;;5030300;28;20034;-82
2021/11/14 00:31:24;;;;;;;10.45;7.15;;;9.80;98.30;;;;;;5032168;28;20155;-82
2021/11/14 00:33:50;;;;;;;10.38;7.25;;;9.80;98.30;;;;;;5031411;28;20037;-82
2021/11/14 00:36:20;;;;;;;9.13;7.43;;;9.90;98.30;;;;;;5032126;28;20425;-82
2021/11/14 00:38:47;;;;;;;12.35;8.32;;;9.80;98.30;;;;;;5030480;28;20519;-83
2021/11/14 00:41:12;;;;;;;10.18;7.53;;;9.90;98.30;;;;;;5031720;28;20029;-83
2021/11/14 00:43:39;;;;;;;10.05;7.82;;;9.90;98.30;;;;;;5031971;28;20636;-83
2021/11/14 00:46:06;;;;;;;10.55;7.57;;;9.90;98.30;;;;;;5032445;28;20057;-83
2021/11/14 00:48:33;;;;;;;12.55;8.43;;;9.90;98.30;;;;;;5031888;28;20065;-83
2021/11/14 00:51:03;;;;;;;14.27;9.02;;;9.90;98.30;;;;;;5030768;28;20041;-82
2021/11/14 00:53:30;;;;;;;11.82;8.80;;;9.90;98.30;;;;;;5030180;28;20028;-82
2021/11/14 00:55:56;;;;;;;12.10;9.38;;;9.90;98.40;;;;;;5032746;28;20036;-83
2021/11/14 00:58:22;;;;;;;11.10;9.25;;;9.90;98.40;;;;;;5031559;28;20112;-83
2021/11/14 01:00:48;;;;;;;12.93;8.43;;;9.90;98.40;;;;;;5031386;28;20026;-84
2021/11/14 01:03:14;;;;;;;12.48;7.60;;;9.90;98.50;;;;;;5032543;28;20036;-83
2021/11/14 01:05:41;;;;;;;11.25;8.43;;;9.90;98.50;;;;;;5030514;28;20029;-83
2021/11/14 01:08:09;;;;;;;14.25;8.60;;;9.90;98.50;;;;;;5032381;28;20029;-83
2021/11/14 01:10:39;;;;;;;12.10;8.45;;;9.90;98.60;;;;;;5039856;28;20104;-83
2021/11/14 01:13:05;;;;;;;14.15;8.85;;;9.90;98.60;;;;;;5044890;28;20025;-82
2021/11/14 01:15:31;;;;;;;13.30;8.75;;;9.80;98.60;;;;;;5044657;28;20029;-82
2021/11/14 01:17:57;;;;;;;11.93;8.43;;;9.90;98.60;;;;;;5037767;28;20048;-82
2021/11/14 01:20:31;;;;;;;13.27;9.93;;;9.80;98.60;;;;;;5033627;28;20037;-82
2021/11/14 01:22:58;;;;;;;11.85;9.32;;;9.90;98.90;;;;;;5032588;28;20580;-83
2021/11/14 01:25:25;;;;;;;13.27;8.98;;;9.80;98.60;;;;;;5031778;28;20021;-82
2021/11/14 01:27:51;;;;;;;13.15;9.18;;;9.90;98.80;;;;;;5030632;28;20833;-83
2021/11/14 01:30:26;;;;;;;11.82;9.13;;;9.80;98.80;;;;;;5029758;28;20393;-82
2021/11/14 01:32:53;;;;;;;11.30;8.60;;;9.80;98.90;;;;;;5031241;28;20033;-83
2021/11/14 01:35:19;;;;;;;12.05;8.43;;;9.80;98.90;;;;;;5029160;28;20104;-84
2021/11/14 01:37:46;;;;;;;15.00;9.02;;;9.80;98.90;;;;;;5029352;28;20071;-84
2021/11/14 01:40:17;;;;;;;12.57;9.23;;;9.80;99.00;;;;;;5029641;28;20029;-83
2021/11/14 01:42:43;;;;;;;12.35;9.32;;;9.80;99.00;;;;;;5031237;28;20091;-83
2021/11/14 01:45:12;;;;;;;14.73;10.20;;;9.80;99.00;;;;;;5029959;28;20029;-83
2021/11/14 01:47:38;;;;;;;11.98;8.63;;;9.80;99.00;;;;;;5028985;28;20117;-84
2021/11/14 01:50:07;;;;;;;14.80;9.35;;;9.80;99.00;;;;;;5030603;28;20042;-83
2021/11/14 01:52:34;;;;;;;18.17;9.70;;;9.80;99.00;;;;;;5030372;28;20108;-83
2021/11/14 01:54:59;;;;;;;12.00;8.18;;;9.80;99.00;;;;;;5030530;28;20037;-83
2021/11/14 01:57:25;;;;;;;13.70;9.10;;;9.80;99.00;;;;;;5030425;28;20478;-83
2021/11/14 01:59:52;;;;;;;12.85;8.27;;;9.80;99.00;;;;;;5029849;28;20049;-83
2021/11/14 02:02:17;;;;;;;11.30;8.32;;;9.80;99.00;;;;;;5028713;28;20041;-84
2021/11/14 02:04:43;;;;;;;13.05;8.27;;;9.80;99.00;;;;;;5029809;28;20033;-84
2021/11/14 02:07:12;;;;;;;10.07;6.90;;;9.80;98.90;;;;;;5030701;28;20040;-84
2021/11/14 02:09:38;;;;;;;13.75;9.57;;;9.80;98.90;;;;;;5029719;28;20036;-83
2021/11/14 02:12:05;;;;;;;11.10;8.27;;;9.80;98.90;;;;;;5030357;28;20041;-83
2021/11/14 02:14:31;;;;;;;12.30;8.88;;;9.80;99.00;;;;;;5030164;28;20034;-84
2021/11/14 02:16:58;;;;;;;12.40;8.82;;;9.80;99.00;;;;;;5030201;28;20036;-83
2021/11/14 02:19:23;;;;;;;12.18;8.88;;;9.80;99.00;;;;;;5029888;28;20140;-83
2021/11/14 02:21:50;;;;;;;10.15;7.82;;;9.80;99.00;;;;;;5029039;28;20112;-83
2021/11/14 02:24:15;;;;;;;11.68;7.57;;;9.80;99.00;;;;;;5030649;28;20135;-83
2021/11/14 02:26:41;;;;;;;12.05;8.02;;;9.80;99.00;;;;;;5030343;28;20068;-83
2021/11/14 02:29:07;;;;;;;12.75;9.40;;;9.80;99.10;;;;;;5029820;28;20539;-83
2021/11/14 02:31:33;;;;;;;11.70;8.85;;;9.80;99.10;;;;;;5028671;28;20116;-83
2021/11/14 02:33:58;;;;;;;12.43;8.45;;;9.80;99.10;;;;;;5028905;28;20115;-84
2021/11/14 02:36:24;;;;;;;11.23;8.00;;;9.80;99.10;;;;;;5029094;28;20048;-83
2021/11/14 02:38:51;;;;;;;13.00;9.25;;;9.80;99.20;;;;;;5030375;28;20042;-83
2021/11/14 02:41:17;;;;;;;14.30;9.32;;;9.80;99.20;;;;;;5033662;28;20025;-83
2021/11/14 02:43:46;;;;;;;11.57;8.07;;;9.70;99.20;;;;;;5039175;28;20034;-83
2021/11/14 02:46:12;;;;;;;13.13;8.63;;;9.80;99.20;;;;;;5019303;28;20030;-83
2021/11/14 02:48:39;;;;;;;10.52;7.88;;;9.70;99.20;;;;;;5018414;28;20029;-84
2021/11/14 02:51:08;;;;;;;13.63;8.88;;;9.70;99.10;;;;;;5008555;28;20076;-83
2021/11/14 02:53:34;;;;;;;14.10;9.23;;;9.70;99.20;;;;;;5023590;28;20257;-83
2021/11/14 02:55:59;;;;;;;12.68;8.55;;;9.70;99.20;;;;;;5029999;28;20037;-83
2021/11/14 02:58:28;;;;;;;12.88;8.75;;;9.70;99.30;;;;;;5028536;28;20885;-84
2021/11/14 03:01:02;;;;;;;12.50;8.60;;;9.70;99.30;;;;;;5029592;28;20063;-83
2021/11/14 03:03:29;;;;;;;12.20;8.68;;;9.70;99.30;;;;;;5029783;28;20030;-83
2021/11/14 03:05:54;;;;;;;12.57;8.43;;;9.70;99.30;;;;;;5029373;28;20033;-83
2021/11/14 03:08:20;;;;;;;12.05;8.82;;;9.70;99.30;;;;;;5028127;28;20030;-81
2021/11/14 03:10:47;;;;;;;11.55;8.68;;;9.70;99.40;;;;;;5029030;28;20072;-82
2021/11/14 03:13:15;;;;;;;12.27;9.25;;;9.70;99.40;;;;;;5029738;28;20025;-83
2021/11/14 03:15:44;;;;;;;10.98;8.32;;;9.70;99.40;;;;;;5029394;28;20084;-81
2021/11/14 03:18:10;;;;;;;13.27;9.23;;;9.70;99.40;;;;;;5029058;28;20063;-81
2021/11/14 03:20:38;;;;;;;10.48;7.95;;;9.70;99.40;;;;;;5028071;28;20042;-81
2021/11/14 03:23:04;;;;;;;14.05;8.93;;;9.70;99.40;;;;;;5029206;28;20153;-81
2021/11/14 03:25:31;;;;;;;10.98;8.63;;;9.70;99.40;;;;;;5029558;28;20044;-82
2021/11/14 03:27:58;;;;;;;15.85;8.88;;;9.70;99.40;;;;;;5027963;28;20017;-81
2021/11/14 03:30:24;;;;;;;11.75;9.27;;;9.70;99.40;;;;;;5029459;28;20038;-81
2021/11/14 03:32:50;;;;;;;14.18;9.27;;;9.70;99.50;;;;;;5029133;28;20037;-81
2021/11/14 03:35:17;;;;;;;12.63;8.77;;;9.70;99.50;;;;;;5028867;28;20042;-81
2021/11/14 03:37:43;;;;;;;13.60;9.32;;;9.70;99.40;;;;;;5028628;28;20061;-84
2021/11/14 03:40:11;;;;;;;11.30;8.20;;;9.70;99.40;;;;;;5029870;28;20443;-81
2021/11/14 03:42:37;;;;;;;12.43;9.00;;;9.70;99.50;;;;;;5028951;28;20382;-84
2021/11/14 03:45:04;;;;;;;11.00;8.32;;;9.70;99.50;;;;;;5029323;28;20024;-83
2021/11/14 03:47:30;;;;;;;11.52;8.40;;;9.70;99.50;;;;;;5027379;28;20120;-83
2021/11/14 03:49:56;;;;;;;11.32;8.68;;;9.70;99.40;;;;;;5029153;28;20123;-82
2021/11/14 03:52:21;;;;;;;10.77;7.35;;;9.70;99.40;;;;;;5028661;28;20040;-81
2021/11/14 03:54:47;;;;;;;10.63;8.43;;;9.70;99.70;;;;;;5029353;28;20099;-81
2021/11/14 03:57:13;;;;;;;11.93;8.30;;;9.70;99.40;;;;;;5028516;28;20425;-82
2021/11/14 03:59:38;;;;;;;14.60;9.27;;;9.70;99.50;;;;;;5028788;28;20429;-82
2021/11/14 04:02:04;;;;;;;9.85;7.35;;;9.70;99.50;;;;;;5028536;28;20390;-82
2021/11/14 04:04:30;;;;;;;11.02;8.27;;;9.70;99.50;;;;;;5028817;28;20033;-82
2021/11/14 04:06:55;;;;;;;12.88;8.48;;;9.70;99.50;;;;;;5027974;28;20091;-82
2021/11/14 04:09:21;;;;;;;14.18;8.10;;;9.70;99.50;;;;;;5028508;28;20034;-82
2021/11/14 04:11:46;;;;;;;11.27;7.75;;;9.70;99.50;;;;;;5028614;28;20045;-82
2021/11/14 04:14:12;;;;;;;11.85;8.90;;;9.70;99.50;;;;;;5028708;28;20492;-82
2021/11/14 04:16:37;;;;;;;12.00;8.63;;;9.70;99.50;;;;;;5028907;28;20022;-82
2021/11/14 04:19:03;;;;;;;10.35;7.65;;;9.70;99.50;;;;;;5027469;28;20383;-82
2021/11/14 04:21:29;;;;;;;11.02;8.90;;;9.70;99.50;;;;;;5026958;28;20556;-81
2021/11/14 04:23:55;;;;;;;14.18;8.80;;;9.70;99.60;;;;;;5029386;28;20108;-83
2021/11/14 04:26:21;;;;;;;9.50;7.18;;;9.70;99.60;;;;;;5029531;28;20033;-84
2021/11/14 04:28:49;;;;;;;9.95;7.47;;;9.70;99.60;;;;;;5031882;28;20064;-83
2021/11/14 04:31:14;;;;;;;12.65;8.07;;;9.70;99.60;;;;;;5030883;28;20159;-84
2021/11/14 04:33:40;;;;;;;12.07;9.38;;;9.70;99.60;;;;;;5032021;28;20534;-83
2021/11/14 04:36:06;;;;;;;10.90;8.35;;;9.70;99.60;;;;;;5033056;28;20568;-84
2021/11/14 04:38:32;;;;;;;12.30;8.75;;;9.70;99.60;;;;;;5031166;28;20057;-83
2021/11/14 04:40:58;;;;;;;13.95;9.63;;;9.70;99.60;;;;;;5032244;28;20024;-83
2021/11/14 04:43:24;;;;;;;15.18;10.35;;;9.70;99.60;;;;;;5032331;28;20029;-83
2021/11/14 04:45:50;;;;;;;15.57;9.50;;;9.70;99.60;;;;;;5031087;28;20026;-83
2021/11/14 04:48:17;;;;;;;13.40;8.50;;;9.70;99.60;;;;;;5029642;28;20041;-83
2021/11/14 04:50:43;;;;;;;15.13;10.48;;;9.70;99.60;;;;;;5031681;28;20029;-81
2021/11/14 04:53:08;;;;;;;16.02;9.30;;;9.60;99.60;;;;;;5032734;28;20033;-82
2021/11/14 04:55:35;;;;;;;11.45;7.70;;;9.60;99.60;;;;;;5031888;28;20021;-83
2021/11/14 04:58:03;;;;;;;12.20;8.63;;;9.60;99.60;;;;;;5031640;28;20034;-83
2021/11/14 05:00:35;;;;;;;12.60;9.00;;;9.60;99.60;;;;;;5032316;28;20062;-83
2021/11/14 05:03:01;;;;;;;12.97;8.47;;;9.70;99.60;;;;;;5032306;28;20057;-84
2021/11/14 05:05:27;;;;;;;14.50;9.00;;;9.60;99.60;;;;;;5036152;28;20049;-83
2021/11/14 05:07:52;;;;;;;13.45;9.80;;;9.70;99.60;;;;;;5043914;28;20041;-83
2021/11/14 05:10:18;;;;;;;12.80;8.52;;;9.70;99.60;;;;;;5049360;28;20029;-83
2021/11/14 05:12:44;;;;;;;12.63;9.35;;;9.70;99.60;;;;;;5044886;28;20037;-82
2021/11/14 05:15:10;;;;;;;12.02;8.90;;;9.60;99.60;;;;;;5043471;28;20030;-81
2021/11/14 05:17:36;;;;;;;11.85;8.45;;;9.60;99.60;;;;;;5031898;28;20456;-81
2021/11/14 05:20:03;;;;;;;12.68;9.35;;;9.70;99.70;;;;;;5030796;28;20072;-82
2021/11/14 05:22:29;;;;;;;12.10;8.00;;;9.70;99.70;;;;;;5030050;28;20032;-82
2021/11/14 05:24:55;;;;;;;11.05;7.00;;;9.60;99.60;;;;;;5031898;28;20033;-81
2021/11/14 05:27:20;;;;;;;13.35;8.63;;;9.70;99.70;;;;;;5031189;28;20099;-82
2021/11/14 05:29:46;;;;;;;11.60;8.77;;;9.60;99.60;;;;;;5030915;28;20462;-82
2021/11/14 05:32:11;;;;;;;13.48;8.65;;;9.70;99.70;;;;;;5030605;28;20033;-81
2021/11/14 05:34:37;;;;;;;12.45;8.55;;;9.60;99.70;;;;;;5030986;28;20430;-82
2021/11/14 05:37:03;;;;;;;12.40;7.93;;;9.60;99.70;;;;;;5028949;28;20056;-81
2021/11/14 05:39:29;;;;;;;14.60;9.05;;;9.70;99.70;;;;;;5029971;28;20029;-82
2021/11/14 05:41:54;;;;;;;13.77;9.30;;;9.70;99.70;;;;;;5030862;28;20034;-82
2021/11/14 05:44:20;;;;;;;12.32;8.27;;;9.60;99.70;;;;;;5031335;28;20131;-82
2021/11/14 05:46:45;;;;;;;14.77;9.55;;;9.60;99.70;;;;;;5031222;28;20071;-83
2021/11/14 05:49:13;;;;;;;11.25;8.68;;;9.60;99.70;;;;;;5030462;28;20437;-82
2021/11/14 05:51:39;;;;;;;14.10;9.40;;;9.60;99.70;;;;;;5030632;28;20033;-82
2021/11/14 05:54:05;;;;;;;13.50;9.27;;;9.70;99.80;;;;;;5029304;28;20056;-82
2021/11/14 05:56:32;;;;;;;9.82;7.18;;;9.70;99.80;;;;;;5030442;28;20061;-82
2021/11/14 06:01:34;;;;;;;16.90;9.55;;;9.60;99.80;;;;;;5030445;28;20108;-82
2021/11/14 06:04:06;;;;;;;13.20;9.38;;;9.60;99.80;;;;;;5029084;28;20048;-82
2021/11/14 06:06:32;;;;;;;14.18;9.00;;;9.60;99.80;;;;;;5029400;28;20029;-82
2021/11/14 06:08:57;;;;;;;12.20;8.23;;;9.60;99.90;;;;;;5029872;28;20032;-82
2021/11/14 06:11:26;;;;;;;12.98;8.95;;;9.60;99.90;;;;;;5028651;28;20460;-82
2021/11/14 06:13:53;;;;;;;13.02;8.40;;;9.60;99.90;;;;;;5030186;28;20033;-82
2021/11/14 06:16:20;;;;;;;11.50;8.20;;;9.60;99.90;;;;;;5030380;28;20075;-82
2021/11/14 06:18:46;;;;;;;15.60;7.85;;;9.60;99.90;;;;;;5027957;28;20034;-81
2021/11/14 06:21:11;;;;;;;11.13;8.27;;;9.60;99.90;;;;;;5030068;28;20034;-81
2021/11/14 06:23:37;;;;;;;13.05;8.57;;;9.60;99.90;;;;;;5028808;28;20041;-82
2021/11/14 06:26:03;;;;;;;13.18;8.68;;;9.60;99.90;;;;;;5030102;28;20052;-83
2021/11/14 06:28:29;;;;;;;10.75;7.57;;;9.60;99.90;;;;;;5027661;28;20034;-82
2021/11/14 06:30:55;;;;;;;12.80;8.73;;;9.60;99.90;;;;;;5027901;28;20472;-82
2021/11/14 06:33:20;;;;;;;15.52;9.32;;;9.60;99.90;;;;;;5030149;28;20031;-81
2021/11/14 06:35:46;;;;;;;14.38;9.63;;;9.60;99.90;;;;;;5028893;28;20458;-81
2021/11/14 06:38:11;;;;;;;14.07;9.75;;;9.60;99.90;;;;;;5029036;28;20030;-81
2021/11/14 06:40:37;;;;;;;13.05;8.82;;;9.60;99.90;;;;;;5030214;28;20104;-81
2021/11/14 06:43:03;;;;;;;14.23;10.18;;;9.60;99.90;;;;;;5029408;28;20025;-82
2021/11/14 06:45:28;;;;;;;12.90;9.45;;;9.60;99.90;;;;;;5028572;28;20037;-82
2021/11/14 06:47:54;;;;;;;15.48;9.20;;;9.60;99.90;;;;;;5029306;28;20039;-82
2021/11/14 06:50:20;;;;;;;14.18;8.85;;;9.60;99.90;;;;;;5029825;28;20048;-81
2021/11/14 06:52:46;;;;;;;14.10;8.60;;;9.60;99.90;;;;;;5028670;28;20065;-82
2021/11/14 06:55:15;;;;;;;13.35;9.40;;;9.60;99.90;;;;;;5028137;28;20053;-82
2021/11/14 06:57:41;;;;;;;13.45;9.18;;;9.70;99.90;;;;;;5029086;28;20041;-82
2021/11/14 07:00:13;;;;;;;11.70;8.60;;;9.70;99.90;;;;;;5028449;28;20029;-82
2021/11/14 07:02:39;;;;;;;16.70;9.57;;;9.70;99.90;;;;;;5029048;28;20021;-82
2021/11/14 07:05:06;;;;;;;13.32;10.70;;;9.70;99.90;;;;;;5029404;28;20188;-82
2021/11/14 07:07:32;;;;;;;15.07;10.13;;;9.70;99.90;;;;;;5027499;28;20025;-82
2021/11/14 07:09:57;;;;;;;12.57;9.23;;;9.70;99.90;;;;;;5028103;28;20030;-82
2021/11/14 07:12:24;;;;;;;12.18;9.32;;;9.80;99.90;;;;;;5029314;28;20030;-82
2021/11/14 07:14:50;;;;;;;14.07;9.35;;;9.80;99.90;;;;;;5028134;28;20032;-82
2021/11/14 07:17:16;;;;;;;14.13;9.88;;;9.80;99.90;;;;;;5029399;28;20026;-82
2021/11/14 07:19:43;;;;;;;13.45;9.95;;;9.80;99.90;;;;;;5028331;28;20597;-83
2021/11/14 07:22:08;;;;;;;16.75;10.65;;;9.80;99.90;;;;;;5028993;28;20051;-83
2021/11/14 07:24:34;;;;;;;13.48;10.18;;;9.80;99.90;;;;;;5029150;28;20398;-83
2021/11/14 07:27:00;;;;;;;12.63;9.15;;;9.90;99.90;;;;;;5029521;28;20021;-83
2021/11/14 07:29:25;;;;;;;13.98;9.38;;;9.80;99.90;;;;;;5028621;28;20067;-83
2021/11/14 07:31:51;;;;;;;15.15;10.48;;;9.90;99.90;;;;;;5027448;28;20042;-83
2021/11/14 07:34:16;;;;;;;15.10;9.23;;;9.90;99.90;;;;;;5029593;28;20030;-83
2021/11/14 07:36:42;;;;;;;11.48;8.98;;;9.90;99.90;;;;;;5028857;28;20576;-83
2021/11/14 07:39:08;;;;;;;13.75;9.05;;;9.90;99.90;;;;;;5029024;28;20040;-83
2021/11/14 07:41:33;;;;;;;14.43;9.77;;;9.90;99.80;;;;;;5027377;28;20036;-83
2021/11/14 07:43:59;;;;;;;13.10;9.85;;;10.00;99.80;;;;;;5029263;28;20030;-83
2021/11/14 07:46:26;;;;;;;13.05;9.65;;;10.00;99.80;;;;;;5029341;28;20025;-83
2021/11/14 07:48:52;;;;;;;15.45;10.30;;;10.00;99.50;;;;;;5027240;28;20041;-83
2021/11/14 07:51:18;;;;;;;14.80;9.57;;;10.00;99.40;;;;;;5027914;28;20037;-83
2021/11/14 07:53:43;;;;;;;12.75;8.63;;;10.00;99.40;;;;;;5029343;28;20120;-83
2021/11/14 07:56:09;;;;;;;12.88;9.60;;;10.10;99.20;;;;;;5029199;28;20116;-83
2021/11/14 07:58:34;;;;;;;13.48;9.95;;;10.10;99.10;;;;;;5028054;28;20030;-83
2021/11/14 08:01:00;;;;;;;16.38;9.63;;;10.10;99.20;;;;;;5029427;28;20060;-83
2021/11/14 08:03:25;;;;;;;12.20;8.90;;;10.10;99.20;;;;;;5032907;28;20044;-83
2021/11/14 08:05:51;;;;;;;14.82;10.38;;;10.10;99.20;;;;;;5031838;28;20148;-84
2021/11/14 08:08:16;;;;;;;13.98;10.10;;;10.10;99.40;;;;;;5032369;28;20030;-82
2021/11/14 08:10:42;;;;;;;15.50;10.10;;;10.10;99.30;;;;;;5031582;28;20072;-82
2021/11/14 08:13:09;;;;;;;12.70;9.43;;;10.10;99.10;;;;;;5031723;28;20034;-83
2021/11/14 08:15:36;;;;;;;13.25;9.98;;;10.10;99.10;;;;;;5033470;28;20167;-83
2021/11/14 08:18:03;;;;;;;13.35;9.60;;;10.10;99.20;;;;;;5032268;28;20159;-83
2021/11/14 08:20:32;;;;;;;13.32;10.27;;;10.20;99.20;;;;;;5032914;28;20471;-82
2021/11/14 08:23:00;;;;;;;13.50;9.88;;;10.20;99.20;;;;;;5031977;28;20107;-82
2021/11/14 08:25:27;;;;;;;14.05;10.90;;;10.20;99.30;;;;;;5033329;28;20152;-83
2021/11/14 08:27:52;;;;;;;13.57;9.50;;;10.20;99.30;;;;;;5039315;28;20037;-83
2021/11/14 08:30:18;;;;;;;15.88;10.32;;;10.20;99.30;;;;;;5042407;28;20041;-83
2021/11/14 08:32:46;;;;;;;16.48;9.93;;;10.20;99.20;;;;;;5042116;28;20104;-82
2021/11/14 08:35:12;;;;;;;12.20;9.60;;;10.30;99.20;;;;;;5033570;28;20024;-82
2021/11/14 08:37:38;;;;;;;13.23;10.98;;;10.30;99.20;;;;;;5031123;28;20117;-83
2021/11/14 08:40:05;;;;;;;14.60;10.88;;;10.40;99.10;;;;;;5032581;28;20040;-83
2021/11/14 08:42:31;;;;;;;13.35;9.52;;;10.40;98.60;;;;;;5031940;28;20033;-83
2021/11/14 08:44:56;;;;;;;13.93;10.25;;;10.50;98.70;;;;;;5032653;28;20112;-83
2021/11/14 08:47:22;;;;;;;14.18;10.65;;;10.60;98.70;;;;;;5032126;28;20101;-83
2021/11/14 08:49:47;;;;;;;14.02;10.55;;;10.70;98.30;;;;;;5031169;28;20079;-83
2021/11/14 08:52:13;;;;;;;16.08;10.80;;;10.70;98.20;;;;;;5032377;28;20037;-82
2021/11/14 08:54:38;;;;;;;16.45;10.25;;;10.70;98.20;;;;;;5031986;28;20033;-82
2021/11/14 08:57:05;;;;;;;14.52;10.23;;;10.70;98.20;;;;;;5032443;28;20108;-82
2021/11/14 08:59:31;;;;;;;14.60;10.80;;;10.70;98.20;;;;;;5030735;28;20034;-83
2021/11/14 09:01:59;;;;;;;14.60;9.55;;;10.70;98.20;;;;;;5031767;28;20021;-82
2021/11/14 09:04:24;;;;;;;13.02;10.00;;;10.70;98.10;;;;;;5031901;28;20104;-83
2021/11/14 09:06:50;;;;;;;13.77;10.95;;;10.70;98.30;;;;;;5031634;28;20108;-82
2021/11/14 09:09:15;;;;;;;14.43;10.30;;;10.70;98.00;;;;;;5030907;28;20038;-82
2021/11/14 09:11:45;;;;;;;14.00;10.45;;;10.70;98.00;;;;;;5029793;28;20037;-83
2021/11/14 09:14:12;;;;;;;14.88;10.25;;;10.70;98.00;;;;;;5030308;28;20033;-82
2021/11/14 09:16:38;;;;;;;16.58;10.93;;;10.70;97.90;;;;;;5031663;28;20029;-82
2021/11/14 09:19:05;;;;;;;17.65;10.55;;;10.80;97.80;;;;;;5031497;28;20037;-83
2021/11/14 09:21:31;;;;;;;15.27;11.23;;;10.80;97.90;;;;;;5030813;28;20029;-82
2021/11/14 09:23:56;;;;;;;17.65;11.02;;;10.80;97.90;;;;;;5030170;28;20513;-84
2021/11/14 09:26:22;;;;;;;13.85;10.93;;;10.80;98.10;;;;;;5031037;28;20068;-82
2021/11/14 09:28:47;;;;;;;17.05;11.05;;;10.80;98.00;;;;;;5029403;28;20033;-82
2021/11/14 09:31:13;;;;;;;15.05;11.00;;;10.80;98.20;;;;;;5031385;28;20482;-83
2021/11/14 09:33:40;;;;;;;16.17;10.93;;;10.90;97.90;;;;;;5031538;28;20029;-82
2021/11/14 09:36:06;;;;;;;16.92;11.55;;;10.90;97.80;;;;;;5030806;28;20033;-82
2021/11/14 09:38:34;;;;;;;14.43;10.65;;;10.90;97.80;;;;;;5030431;28;20033;-82
2021/11/14 09:41:07;;;;;;;15.68;11.00;;;10.90;98.30;;;;;;5030651;28;20393;-82
2021/11/14 09:43:33;;;;;;;17.08;11.40;;;10.90;98.10;;;;;;5031369;28;20050;-82
2021/11/14 09:45:59;;;;;;;14.48;10.63;;;11.00;98.00;;;;;;5029684;28;20029;-82
2021/11/14 09:48:26;;;;;;;16.92;11.82;;;10.90;97.80;;;;;;5030379;28;20031;-83
2021/11/14 09:50:56;;;;;;;16.15;11.80;;;10.90;97.70;;;;;;5030710;28;20034;-83
2021/11/14 09:53:27;;;;;;;16.58;11.30;;;10.90;97.80;;;;;;5031210;28;20068;-82
2021/11/14 09:55:52;;;;;;;15.75;11.52;;;10.90;98.20;;;;;;5030447;28;20112;-84
2021/11/14 09:58:18;;;;;;;14.48;10.77;;;10.90;98.00;;;;;;5030093;28;20447;-83
2021/11/14 10:00:43;;;;;;;19.67;13.20;;;10.90;98.10;;;;;;5029945;28;20072;-84
2021/11/14 10:03:10;;;;;;;14.23;11.07;;;10.90;98.00;;;;;;5030869;28;20033;-83
2021/11/14 10:05:37;;;;;;;16.13;11.60;;;11.00;98.00;;;;;;5028597;28;20532;-84
2021/11/14 10:08:05;;;;;;;17.42;12.30;;;11.00;98.20;;;;;;5029769;28;20025;-83
2021/11/14 10:10:36;;;;;;;14.65;11.18;;;11.00;97.90;;;;;;5030462;28;20061;-83
2021/11/14 10:13:21;;;;;;;15.02;11.23;;;11.10;98.00;;;;;;5030866;28;20097;-82
2021/11/14 10:15:50;;;;;;;15.43;10.65;;;11.10;97.90;;;;;;5030810;28;20034;-83
2021/11/14 10:18:21;;;;;;;17.10;11.90;;;11.10;97.90;;;;;;5029745;28;20052;-82
2021/11/14 10:20:50;;;;;;;15.88;11.52;;;11.20;97.90;;;;;;5030220;28;20095;-83
2021/11/14 10:23:17;;;;;;;17.23;11.50;;;11.20;97.60;;;;;;5036886;28;20092;-81
2021/11/14 10:25:44;;;;;;;17.63;11.68;;;11.30;97.60;;;;;;5039757;28;20033;-83
2021/11/14 10:28:10;;;;;;;18.30;12.40;;;11.20;97.70;;;;;;5035239;28;20372;-83
2021/11/14 10:30:39;;;;;;;20.45;12.10;;;11.20;97.50;;;;;;5030040;28;20048;-83
2021/11/14 10:33:08;;;;;;;17.38;12.27;;;11.20;97.50;;;;;;5030162;28;20493;-83
2021/11/14 10:35:36;;;;;;;17.27;11.80;;;11.20;97.50;;;;;;5031280;28;20467;-83
2021/11/14 10:38:05;;;;;;;18.42;11.77;;;11.20;97.40;;;;;;5034977;28;20058;-83
2021/11/14 10:40:38;;;;;;;18.67;11.90;;;11.20;97.50;;;;;;5010364;28;20033;-83
2021/11/14 10:43:05;;;;;;;17.95;12.85;;;11.10;97.50;;;;;;5008495;28;20037;-82
2021/11/14 10:45:34;;;;;;;18.63;11.55;;;11.20;97.80;;;;;;5010280;28;20120;-82
2021/11/14 10:48:03;;;;;;;18.02;12.43;;;11.20;97.80;;;;;;5008174;28;20037;-83
2021/11/14 10:50:32;;;;;;;16.70;11.68;;;11.20;97.70;;;;;;5010344;28;20128;-82
2021/11/14 10:53:01;;;;;;;18.05;12.30;;;11.20;97.60;;;;;;5009925;28;20355;-83
2021/11/14 10:55:33;;;;;;;18.35;11.80;;;11.20;97.50;;;;;;5025214;28;20022;-82
2021/11/14 10:57:59;;;;;;;16.10;11.27;;;11.30;97.60;;;;;;5013826;28;20032;-83
2021/11/14 11:00:29;;;;;;;17.63;12.13;;;11.30;97.50;;;;;;5027969;28;20033;-83
2021/11/14 11:02:54;;;;;;;19.70;11.98;;;11.30;97.30;;;;;;5029287;28;20053;-83
2021/11/14 11:05:28;;;;;;;18.17;12.80;;;11.30;97.50;;;;;;5029194;28;20056;-82
2021/11/14 11:07:56;;;;;;;20.80;13.50;;;11.30;97.20;;;;;;5029144;28;20602;-83
2021/11/14 11:10:33;;;;;;;19.75;12.65;;;11.30;97.40;;;;;;5029197;28;20033;-83
2021/11/14 11:13:01;;;;;;;20.77;12.95;;;11.40;97.40;;;;;;5010098;28;20037;-83
2021/11/14 11:15:27;;;;;;;19.00;11.82;;;11.40;97.40;;;;;;5039187;28;20034;-82
2021/11/14 11:17:53;;;;;;;17.80;12.77;;;11.40;97.60;;;;;;5027338;28;20032;-82
2021/11/14 11:20:29;;;;;;;18.45;12.65;;;11.50;97.70;;;;;;5028943;28;20026;-82
2021/11/14 11:22:57;;;;;;;21.10;13.45;;;11.60;97.20;;;;;;5029311;28;20349;-82
2021/11/14 11:25:43;;;;;;;19.35;13.82;;;11.60;97.30;;;;;;5029664;28;20030;-82
2021/11/14 11:28:16;;;;;;;19.58;12.68;;;11.50;97.10;;;;;;5027600;28;20056;-82
2021/11/14 11:30:45;;;;;;;19.73;13.10;;;11.50;97.30;;;;;;5029597;28;20044;-82
2021/11/14 11:33:10;;;;;;;19.35;13.30;;;11.50;97.30;;;;;;5028425;28;20033;-82
2021/11/14 11:35:36;;;;;;;21.23;13.48;;;11.50;97.30;;;;;;5028772;28;20112;-82
2021/11/14 11:38:03;;;;;;;19.13;12.75;;;11.60;97.30;;;;;;5032722;28;20116;-82
2021/11/14 11:40:29;;;;;;;19.25;14.88;;;11.60;97.10;;;;;;5033637;28;20029;-82
2021/11/14 11:42:54;;;;;;;19.27;13.63;;;11.60;97.00;;;;;;5033254;28;20040;-81
2021/11/14 11:45:29;;;;;;;20.40;13.95;;;11.60;97.00;;;;;;5032221;28;20040;-81
2021/11/14 11:47:58;;;;;;;20.48;14.15;;;11.60;97.20;;;;;;5032793;28;20056;-82
2021/11/14 11:50:27;;;;;;;18.80;13.05;;;11.60;97.30;;;;;;5033325;28;20037;-81
2021/11/14 11:52:54;;;;;;;22.40;13.70;;;11.60;97.40;;;;;;5032674;28;20045;-82
2021/11/14 11:55:24;;;;;;;19.25;13.15;;;11.50;97.50;;;;;;5033462;28;20490;-82
2021/11/14 11:57:51;;;;;;;18.52;12.50;;;11.50;97.50;;;;;;5031156;28;20036;-82
2021/11/14 12:00:18;;;;;;;22.08;14.00;;;11.60;97.60;;;;;;5031455;28;20025;-81
2021/11/14 12:02:44;;;;;;;22.58;13.52;;;11.60;97.70;;;;;;5032742;28;20505;-81
2021/11/14 12:05:13;;;;;;;21.83;12.38;;;11.60;97.90;;;;;;5033278;28;20061;-81
2021/11/14 12:07:51;;;;;;;23.20;15.50;;;11.70;97.30;;;;;;5031035;28;20033;-82
2021/11/14 12:10:24;;;;;;;24.67;14.75;;;11.70;97.40;;;;;;5033031;28;20034;-82
2021/11/14 12:13:03;;;;;;;22.95;15.98;;;11.60;97.30;;;;;;5032835;28;20128;-82
2021/11/14 12:15:34;;;;;;;21.65;14.82;;;11.60;97.40;;;;;;5033433;28;20417;-81
2021/11/14 12:18:07;;;;;;;19.77;12.82;;;11.60;97.50;;;;;;5042330;28;20028;-81
2021/11/14 12:20:43;;;;;;;23.95;15.60;;;11.60;97.50;;;;;;5044500;28;20083;-82
2021/11/14 12:23:31;;;;;;;21.17;14.57;;;11.50;97.60;;;;;;5043358;28;20065;-82
2021/11/14 12:25:59;;;;;;;20.10;14.20;;;11.50;97.60;;;;;;5043775;28;20029;-81
2021/11/14 12:28:32;;;;;;;26.27;14.57;;;11.50;97.70;;;;;;5031370;28;20056;-82
2021/11/14 12:31:15;;;;;;;20.85;13.85;;;11.50;97.60;;;;;;5031235;28;20092;-83
2021/11/14 12:33:49;;;;;;;23.30;14.93;;;11.50;97.70;;;;;;5030789;28;20030;-83
2021/11/14 12:36:39;;;;;;;23.77;15.75;;;11.60;97.70;;;;;;5032183;28;20025;-83
2021/11/14 12:39:16;;;;;;;21.45;13.35;;;11.50;97.60;;;;;;5030668;28;20034;-83
2021/11/14 12:41:55;;;;;;;21.58;14.75;;;11.50;97.70;;;;;;5031321;28;20038;-83
2021/11/14 12:44:49;;;;;;;20.73;13.95;;;11.50;97.90;;;;;;5032567;28;20036;-83